Hueytown, Alabama
Current Conditions -  °F | °C
As of 9:53 AM on Wednesday 22 Oct 2014 (Local Time) from KBHM Reporting Station
Clear Clear  
Wind Chill: 59°   Ceiling: Unl
Heat Index: 59°   Visibility: 10mi
Dew Point: 40°   Wind: 8mph
Humidity: 49%   Direction: 20°NNE
Pressure: 30.19"   Gusts: NA
Location:  33.44°N, 86.99°W
Report Text: KBHM 221453Z 02007KT 10SM CLR 15/04 A3019 RMK AO2 SLP221 T01500044 51011
Loading
Personal Weather Stations






























Interactive Weather Map
Tropical Storm Tracking
New forecast layout! Learn more

10-Day Weather Forecast

Advertisements
Track Severe Weather on mobile